Pagrindinis puslapis
METAR-TAF:

METAR-TAF

Oro uostai :

Taunton Municipal Airport (King Field)

Taunton, Masačusetsas, Jungtinės Amerikos Valstijos

platuma: 41-52-32N, ilguma: 071-01-16W, Aukštis: 13 m

Dabartinis oras

Ataskaita buvo paskelbta 21 minutes, ne 06:52 UTC
Vėjas 9 kt iš Vakarų su gūsio iki 24 kt, svyruoja nuo Pietvakarių ir Vakarų
Temperatūra -1°C
Drėgmė 40%
Slėgis 1006 hPa
Matomumas: 16.1 km
Su prošvaistėmis ne aukštis 6500 ft

METAR: KTAN 280652Z AUTO 26009G24KT 220V280 10SM BKN065 M01/M13 A2971 RMK AO2 SLP061 T10111133

Laikas: 02:13 (07:13 UTC)


TAF: trūkstamas

Orai ataskaitas ir orų prognozės (METAR, TAF).

turimą stotys yra geltonos ir raudonos taškus žemėlapyje.

Perkelti pele per norėdami pamatyti stoties vardą.

Tada spustelėkite, norėdami matyti oro stebėjimo ir prognozės.

Norėdami pakeisti žemėlapį: spustelėkite ant žalios mygtukų su juodo kryžiaus žemyn,; žalią mygtuką su brūkšneliu, jei norite nutolinti; arba žalių rodyklių gretimoms žemėlapius.


METAR-TAF: